createdAt,value
2018-09-06T00:00:07.220Z,0
2018-09-06T00:01:09.333Z,0
2018-09-06T00:02:11.420Z,0
2018-09-06T00:03:13.521Z,0
2018-09-06T00:04:16.014Z,0
2018-09-06T00:05:18.130Z,0
2018-09-06T00:06:20.223Z,0
2018-09-06T00:07:22.632Z,0
2018-09-06T00:08:25.514Z,0
2018-09-06T00:09:27.997Z,0
2018-09-06T00:10:30.107Z,0
2018-09-06T00:11:32.498Z,0
2018-09-06T00:12:34.878Z,0
2018-09-06T00:13:36.979Z,0
2018-09-06T00:14:39.090Z,0
2018-09-06T00:15:41.189Z,0
2018-09-06T00:16:43.299Z,0
2018-09-06T00:17:45.401Z,0
2018-09-06T00:18:47.492Z,0
2018-09-06T00:19:49.600Z,0
2018-09-06T00:20:51.712Z,0
2018-09-06T00:21:54.093Z,0
2018-09-06T00:22:56.201Z,0
2018-09-06T00:23:58.595Z,0
2018-09-06T00:25:00.987Z,0
2018-09-06T00:26:03.102Z,0
2018-09-06T00:27:05.197Z,0
2018-09-06T00:28:07.302Z,0
2018-09-06T00:29:10.097Z,0
2018-09-06T00:30:12.211Z,0
2018-09-06T00:31:14.594Z,0
2018-09-06T00:32:16.985Z,0
2018-09-06T00:33:19.094Z,0
2018-09-06T00:34:21.472Z,0
2018-09-06T00:35:23.585Z,0
2018-09-06T00:36:25.694Z,0
2018-09-06T00:37:27.800Z,0
2018-09-06T00:38:30.179Z,0
2018-09-06T00:39:32.581Z,0
2018-09-06T00:40:34.684Z,0
2018-09-06T00:41:36.792Z,0
2018-09-06T00:42:39.173Z,0
2018-09-06T00:43:41.288Z,0
2018-09-06T00:44:43.391Z,0
2018-09-06T00:45:45.490Z,0
2018-09-06T00:46:47.584Z,0
2018-09-06T00:47:49.698Z,0
2018-09-06T00:48:51.794Z,0
2018-09-06T00:49:53.907Z,0
2018-09-06T00:50:56.006Z,0
2018-09-06T00:51:58.103Z,0
2018-09-06T00:53:00.203Z,0
2018-09-06T00:54:02.326Z,0
2018-09-06T00:55:04.803Z,0
2018-09-06T00:56:06.921Z,0
2018-09-06T00:57:09.033Z,0
2018-09-06T00:58:11.122Z,0
2018-09-06T00:59:13.630Z,0
2018-09-06T01:00:15.730Z,0
2018-09-06T01:01:17.830Z,0
2018-09-06T01:02:19.922Z,0
2018-09-06T01:03:22.037Z,0
2018-09-06T01:04:24.130Z,0
2018-09-06T01:05:26.236Z,0
2018-09-06T01:06:28.346Z,0
2018-09-06T01:07:30.727Z,0
2018-09-06T01:08:32.839Z,0
2018-09-06T01:09:34.949Z,0
2018-09-06T01:10:37.347Z,0
2018-09-06T01:11:39.440Z,0
2018-09-06T01:12:41.937Z,0
2018-09-06T01:13:44.037Z,0
2018-09-06T01:14:46.130Z,0
2018-09-06T01:15:48.251Z,0
2018-09-06T01:16:50.351Z,0
2018-09-06T01:17:52.460Z,0
2018-09-06T01:18:54.563Z,0
2018-09-06T01:19:56.671Z,0
2018-09-06T01:20:59.174Z,0
2018-09-06T01:22:01.273Z,0
2018-09-06T01:23:03.393Z,0
2018-09-06T01:24:05.798Z,0
2018-09-06T01:25:07.892Z,0
2018-09-06T01:26:09.989Z,0
2018-09-06T01:27:12.102Z,0
2018-09-06T01:28:14.501Z,0
2018-09-06T01:29:17.304Z,0
2018-09-06T01:30:19.415Z,0
2018-09-06T01:31:21.508Z,0
2018-09-06T01:32:23.918Z,0
2018-09-06T01:33:26.016Z,0
2018-09-06T01:34:28.121Z,0
2018-09-06T01:35:30.215Z,0
2018-09-06T01:36:32.334Z,0
2018-09-06T01:37:34.428Z,0
2018-09-06T01:38:36.698Z,0
2018-09-06T01:39:38.941Z,0
2018-09-06T01:40:41.026Z,0
2018-09-06T01:41:43.135Z,0
2018-09-06T01:42:45.241Z,0
2018-09-06T01:43:47.347Z,0
2018-09-06T01:44:49.726Z,0
2018-09-06T01:45:51.836Z,0
2018-09-06T01:46:54.226Z,0
2018-09-06T01:47:56.326Z,0
2018-09-06T01:48:58.453Z,0
2018-09-06T01:50:00.549Z,0
2018-09-06T01:51:02.654Z,0
2018-09-06T01:52:04.763Z,0
2018-09-06T01:53:07.156Z,0
2018-09-06T01:54:09.246Z,0
2018-09-06T01:55:11.358Z,0
2018-09-06T01:56:13.462Z,0
2018-09-06T01:57:15.565Z,0
2018-09-06T01:58:17.980Z,0
2018-09-06T01:59:20.483Z,0
2018-09-06T02:00:22.575Z,0
2018-09-06T02:01:24.689Z,0
2018-09-06T02:02:26.796Z,0
2018-09-06T02:03:28.913Z,0
2018-09-06T02:04:31.000Z,0
2018-09-06T02:05:33.093Z,0
2018-09-06T02:06:35.195Z,0
2018-09-06T02:07:37.585Z,0
2018-09-06T02:08:39.697Z,0
2018-09-06T02:09:42.184Z,0
2018-09-06T02:10:44.299Z,0
2018-09-06T02:11:46.403Z,0
2018-09-06T02:12:48.497Z,0
2018-09-06T02:13:50.617Z,0
2018-09-06T02:14:52.710Z,0
2018-09-06T02:15:55.103Z,0
2018-09-06T02:16:57.203Z,0
2018-09-06T02:17:59.312Z,0
2018-09-06T02:19:01.409Z,0
2018-09-06T02:20:03.519Z,0
2018-09-06T02:21:05.628Z,0
2018-09-06T02:22:08.006Z,0
2018-09-06T02:23:10.123Z,0
2018-09-06T02:24:12.825Z,0
2018-09-06T02:25:14.919Z,0
2018-09-06T02:26:17.020Z,0
2018-09-06T02:27:19.139Z,0
2018-09-06T02:28:21.237Z,0
2018-09-06T02:29:23.348Z,0
2018-09-06T02:30:25.459Z,0
2018-09-06T02:31:27.553Z,0
2018-09-06T02:32:29.659Z,0
2018-09-06T02:33:32.052Z,0
2018-09-06T02:34:34.168Z,0
2018-09-06T02:35:36.278Z,0
2018-09-06T02:36:38.672Z,0
2018-09-06T02:37:42.097Z,0
2018-09-06T02:38:44.186Z,0
2018-09-06T02:39:46.746Z,0
2018-09-06T02:40:49.231Z,0
2018-09-06T02:41:51.350Z,0
2018-09-06T02:42:53.436Z,0
2018-09-06T02:43:55.544Z,0
2018-09-06T02:44:57.946Z,0
2018-09-06T02:46:00.331Z,0
2018-09-06T02:47:02.449Z,0
2018-09-06T02:48:04.546Z,0
2018-09-06T02:49:06.653Z,0
2018-09-06T02:50:08.757Z,0
2018-09-06T02:51:10.882Z,0
2018-09-06T02:52:13.283Z,0
2018-09-06T02:53:15.395Z,0
2018-09-06T02:54:17.513Z,0
2018-09-06T02:55:19.990Z,0
2018-09-06T02:56:22.485Z,0
2018-09-06T02:57:24.608Z,0
2018-09-06T02:58:27.011Z,0
2018-09-06T02:59:29.693Z,0
2018-09-06T03:00:32.197Z,0
2018-09-06T03:01:34.595Z,0
2018-09-06T03:02:36.711Z,0
2018-09-06T03:03:38.816Z,0
2018-09-06T03:04:41.212Z,0
2018-09-06T03:05:43.310Z,0
2018-09-06T03:06:45.420Z,0
2018-09-06T03:07:47.509Z,0
2018-09-06T03:08:49.621Z,0
2018-09-06T03:09:52.031Z,0
2018-09-06T03:10:54.125Z,0
2018-09-06T03:11:56.249Z,0
2018-09-06T03:12:58.350Z,0
2018-09-06T03:14:00.830Z,0
2018-09-06T03:15:03.604Z,0
2018-09-06T03:16:06.428Z,0
2018-09-06T03:17:08.523Z,0
2018-09-06T03:18:10.917Z,0
2018-09-06T03:19:13.039Z,0
2018-09-06T03:20:15.131Z,0
2018-09-06T03:21:17.245Z,0
2018-09-06T03:22:19.639Z,0
2018-09-06T03:23:21.745Z,0
2018-09-06T03:24:23.882Z,0
2018-09-06T03:25:25.949Z,0
2018-09-06T03:26:28.043Z,0
2018-09-06T03:27:30.144Z,0
2018-09-06T03:28:32.664Z,0
2018-09-06T03:29:34.769Z,0
2018-09-06T03:30:36.880Z,0
2018-09-06T03:31:39.001Z,0
2018-09-06T03:32:41.411Z,0
2018-09-06T03:33:43.509Z,0
2018-09-06T03:34:45.611Z,0
2018-09-06T03:35:47.775Z,0
2018-09-06T03:36:50.107Z,0
2018-09-06T03:37:52.514Z,0
2018-09-06T03:38:54.616Z,0
2018-09-06T03:39:56.709Z,0
2018-09-06T03:40:58.821Z,0
2018-09-06T03:42:01.318Z,0
2018-09-06T03:43:03.806Z,0
2018-09-06T03:44:06.609Z,0
2018-09-06T03:45:08.696Z,0
2018-09-06T03:46:11.784Z,0
2018-09-06T03:47:13.887Z,0
2018-09-06T03:48:16.003Z,0
2018-09-06T03:49:18.105Z,0
2018-09-06T03:50:20.200Z,0
2018-09-06T03:51:22.314Z,0
2018-09-06T03:52:24.422Z,0
2018-09-06T03:53:26.510Z,0
2018-09-06T03:54:28.626Z,0
2018-09-06T03:55:30.727Z,0
2018-09-06T03:56:33.124Z,0
2018-09-06T03:57:35.217Z,0
2018-09-06T03:58:37.338Z,0
2018-09-06T03:59:40.400Z,0
2018-09-06T04:00:42.789Z,0
2018-09-06T04:01:44.912Z,0
2018-09-06T04:02:47.295Z,0
2018-09-06T04:03:49.400Z,0
2018-09-06T04:04:51.511Z,0
2018-09-06T04:05:53.897Z,0
2018-09-06T04:06:56.283Z,0
2018-09-06T04:07:58.389Z,0
2018-09-06T04:09:00.482Z,0
2018-09-06T04:10:02.911Z,0
2018-09-06T04:11:05.015Z,0
2018-09-06T04:12:07.813Z,0
2018-09-06T04:13:09.905Z,0
2018-09-06T04:14:12.417Z,0
2018-09-06T04:15:14.534Z,0
2018-09-06T04:16:16.927Z,0
2018-09-06T04:17:19.039Z,0
2018-09-06T04:18:21.150Z,0
2018-09-06T04:19:23.625Z,0
2018-09-06T04:20:25.737Z,0
2018-09-06T04:21:27.851Z,0
2018-09-06T04:22:29.946Z,0
2018-09-06T04:23:32.072Z,0
2018-09-06T04:24:34.180Z,0
2018-09-06T04:25:36.672Z,0
2018-09-06T04:26:38.786Z,0
2018-09-06T04:27:41.172Z,0
2018-09-06T04:28:43.273Z,0
2018-09-06T04:29:45.372Z,0
2018-09-06T04:30:47.487Z,0
2018-09-06T04:31:49.583Z,1
2018-09-06T04:32:51.690Z,1
2018-09-06T04:33:53.808Z,1
2018-09-06T04:34:55.895Z,1
2018-09-06T04:35:58.016Z,1
2018-09-06T04:37:00.117Z,1
2018-09-06T04:38:02.216Z,1
2018-09-06T04:39:04.326Z,1
2018-09-06T04:40:06.444Z,1
2018-09-06T04:41:08.835Z,1
2018-09-06T04:42:10.944Z,1
2018-09-06T04:43:13.046Z,2
2018-09-06T04:44:15.146Z,2
2018-09-06T04:45:17.258Z,2
2018-09-06T04:46:19.375Z,2
2018-09-06T04:47:21.476Z,2
2018-09-06T04:48:23.874Z,2
2018-09-06T04:49:25.984Z,2
2018-09-06T04:50:28.708Z,2
2018-09-06T04:51:30.785Z,2
2018-09-06T04:52:32.886Z,3
2018-09-06T04:53:34.991Z,3
2018-09-06T04:54:37.083Z,3
2018-09-06T04:55:39.632Z,3
2018-09-06T04:56:41.682Z,4
2018-09-06T04:57:44.082Z,4
2018-09-06T04:58:46.193Z,5
2018-09-06T04:59:48.286Z,5
2018-09-06T05:00:50.810Z,5
2018-09-06T05:01:53.192Z,5
2018-09-06T05:02:55.597Z,4
2018-09-06T05:03:58.082Z,4
2018-09-06T05:05:00.180Z,4
2018-09-06T05:06:02.288Z,5
2018-09-06T05:07:04.987Z,5
2018-09-06T05:08:07.075Z,5
2018-09-06T05:09:09.477Z,6
2018-09-06T05:10:11.587Z,5
2018-09-06T05:11:13.681Z,6
2018-09-06T05:12:15.783Z,6
2018-09-06T05:13:18.190Z,6
2018-09-06T05:14:20.306Z,7
2018-09-06T05:15:22.817Z,7
2018-09-06T05:16:24.921Z,7
2018-09-06T05:17:27.018Z,8
2018-09-06T05:18:29.118Z,8
2018-09-06T05:19:31.526Z,8
2018-09-06T05:20:33.619Z,8
2018-09-06T05:21:36.018Z,8
2018-09-06T05:22:38.121Z,9
2018-09-06T05:23:40.214Z,9
2018-09-06T05:24:42.337Z,10
2018-09-06T05:25:44.436Z,10
2018-09-06T05:26:46.950Z,10
2018-09-06T05:27:49.046Z,10
2018-09-06T05:28:51.160Z,10
2018-09-06T05:29:53.262Z,11
2018-09-06T05:30:55.761Z,12
2018-09-06T05:31:57.780Z,12
2018-09-06T05:33:00.167Z,11
2018-09-06T05:34:02.273Z,12
2018-09-06T05:35:04.755Z,12
2018-09-06T05:36:06.850Z,13
2018-09-06T05:37:08.891Z,12
2018-09-06T05:38:11.011Z,13
2018-09-06T05:39:13.725Z,13
2018-09-06T05:40:15.827Z,12
2018-09-06T05:41:18.233Z,12
2018-09-06T05:42:20.646Z,12
2018-09-06T05:43:22.751Z,13
2018-09-06T05:44:24.849Z,14
2018-09-06T05:45:26.958Z,13
2018-09-06T05:46:29.753Z,13
2018-09-06T05:47:32.511Z,13
2018-09-06T05:48:34.507Z,15
2018-09-06T05:49:36.613Z,15
2018-09-06T05:50:38.706Z,14
2018-09-06T05:51:41.108Z,14
2018-09-06T05:52:43.218Z,16
2018-09-06T05:53:45.618Z,15
2018-09-06T05:54:48.026Z,14
2018-09-06T05:55:50.134Z,15
2018-09-06T05:56:52.228Z,15
2018-09-06T05:57:54.767Z,17
2018-09-06T05:58:57.201Z,16
2018-09-06T05:59:59.342Z,16
2018-09-06T06:01:01.404Z,19
2018-09-06T06:02:03.518Z,21
2018-09-06T06:03:05.616Z,17
2018-09-06T06:04:08.005Z,17
2018-09-06T06:05:10.145Z,20
2018-09-06T06:06:12.501Z,22
2018-09-06T06:07:15.003Z,27
2018-09-06T06:08:17.412Z,22
2018-09-06T06:09:19.530Z,21
2018-09-06T06:10:21.630Z,22
2018-09-06T06:11:23.744Z,19
2018-09-06T06:12:25.852Z,20
2018-09-06T06:13:27.950Z,19
2018-09-06T06:14:30.069Z,20
2018-09-06T06:15:32.559Z,20
2018-09-06T06:16:34.667Z,21
2018-09-06T06:17:36.776Z,24
2018-09-06T06:18:39.271Z,22
2018-09-06T06:19:42.358Z,22
2018-09-06T06:20:44.466Z,22
2018-09-06T06:21:46.582Z,21
2018-09-06T06:22:48.686Z,21
2018-09-06T06:23:51.072Z,22
2018-09-06T06:24:53.174Z,23
2018-09-06T06:25:55.304Z,24
2018-09-06T06:26:57.388Z,23
2018-09-06T06:27:59.789Z,24
2018-09-06T06:29:02.673Z,25
2018-09-06T06:30:04.772Z,26
2018-09-06T06:31:07.176Z,27
2018-09-06T06:32:09.754Z,25
2018-09-06T06:33:11.842Z,30
2018-09-06T06:34:14.245Z,34
2018-09-06T06:35:16.358Z,32
2018-09-06T06:36:18.453Z,32
2018-09-06T06:37:20.559Z,33
2018-09-06T06:38:23.074Z,36
2018-09-06T06:39:25.171Z,35
2018-09-06T06:40:27.275Z,33
2018-09-06T06:41:29.379Z,35
2018-09-06T06:42:31.791Z,36
2018-09-06T06:43:34.171Z,40
2018-09-06T06:44:36.674Z,38
2018-09-06T06:45:39.092Z,40
2018-09-06T06:46:41.193Z,44
2018-09-06T06:47:43.313Z,42
2018-09-06T06:48:45.409Z,41
2018-09-06T06:49:47.525Z,43
2018-09-06T06:50:49.934Z,40
2018-09-06T06:51:52.043Z,55
2018-09-06T06:52:54.475Z,52
2018-09-06T06:53:56.591Z,42
2018-09-06T06:54:58.978Z,47
2018-09-06T06:56:01.087Z,54
2018-09-06T06:57:03.496Z,56
2018-09-06T06:58:05.621Z,56
2018-09-06T06:59:07.986Z,57
2018-09-06T07:00:10.395Z,66
2018-09-06T07:01:12.790Z,57
2018-09-06T07:02:14.893Z,61
2018-09-06T07:03:17.011Z,68
2018-09-06T07:04:19.684Z,67
2018-09-06T07:05:21.680Z,60
2018-09-06T07:06:24.171Z,57
2018-09-06T07:07:26.282Z,58
2018-09-06T07:08:28.375Z,56
2018-09-06T07:09:30.497Z,54
2018-09-06T07:10:32.893Z,59
2018-09-06T07:11:34.995Z,66
2018-09-06T07:12:37.793Z,59
2018-09-06T07:13:39.890Z,57
2018-09-06T07:14:42.006Z,59
2018-09-06T07:15:44.107Z,61
2018-09-06T07:16:46.232Z,55
2018-09-06T07:17:48.333Z,76
2018-09-06T07:18:50.841Z,68
2018-09-06T07:19:52.988Z,59
2018-09-06T07:20:55.087Z,67
2018-09-06T07:21:57.209Z,58
2018-09-06T07:22:59.327Z,53
2018-09-06T07:24:01.449Z,59
2018-09-06T07:25:04.001Z,71
2018-09-06T07:26:06.405Z,73
2018-09-06T07:27:08.535Z,64
2018-09-06T07:28:11.087Z,58
2018-09-06T07:29:13.201Z,68
2018-09-06T07:30:15.314Z,66
2018-09-06T07:31:17.433Z,65
2018-09-06T07:32:19.557Z,70
2018-09-06T07:33:21.656Z,74
2018-09-06T07:34:23.774Z,76
2018-09-06T07:35:26.317Z,76
2018-09-06T07:36:28.438Z,74
2018-09-06T07:37:30.838Z,75
2018-09-06T07:38:33.260Z,75
2018-09-06T07:39:35.377Z,81
2018-09-06T07:40:37.807Z,76
2018-09-06T07:41:39.905Z,74
2018-09-06T07:42:42.019Z,79
2018-09-06T07:43:44.130Z,84
2018-09-06T07:44:46.235Z,84
2018-09-06T07:45:48.358Z,75
2018-09-06T07:46:50.526Z,80
2018-09-06T07:47:52.571Z,101
2018-09-06T07:48:54.971Z,83
2018-09-06T07:49:57.129Z,99
2018-09-06T07:50:59.207Z,160
2018-09-06T07:52:01.325Z,198
2018-09-06T07:53:03.442Z,196
2018-09-06T07:54:05.540Z,198
2018-09-06T07:55:07.659Z,195
2018-09-06T07:56:10.171Z,196
2018-09-06T07:57:12.660Z,202
2018-09-06T07:58:14.780Z,214
2018-09-06T07:59:16.900Z,226
2018-09-06T08:00:19.009Z,210
2018-09-06T08:01:21.435Z,225
2018-09-06T08:02:23.554Z,162
2018-09-06T08:03:25.972Z,177
2018-09-06T08:04:28.481Z,218
2018-09-06T08:05:30.603Z,220
2018-09-06T08:06:32.714Z,211
2018-09-06T08:07:34.835Z,225
2018-09-06T08:08:36.954Z,243
2018-09-06T08:09:39.059Z,225
2018-09-06T08:10:41.182Z,223
2018-09-06T08:11:43.585Z,227
2018-09-06T08:12:45.694Z,237
2018-09-06T08:13:47.791Z,221
2018-09-06T08:14:49.915Z,228
2018-09-06T08:15:52.043Z,228
2018-09-06T08:16:54.152Z,240
2018-09-06T08:17:56.253Z,236
2018-09-06T08:18:58.517Z,239
2018-09-06T08:20:00.540Z,256
2018-09-06T08:21:02.661Z,258
2018-09-06T08:22:04.773Z,236
2018-09-06T08:23:06.903Z,245
2018-09-06T08:24:09.016Z,245
2018-09-06T08:25:11.120Z,247
2018-09-06T08:26:13.234Z,249
2018-09-06T08:27:15.335Z,247
2018-09-06T08:28:17.773Z,245
2018-09-06T08:29:20.270Z,248
2018-09-06T08:30:22.373Z,250
2018-09-06T08:31:25.005Z,265
2018-09-06T08:32:27.116Z,266
2018-09-06T08:33:29.504Z,265
2018-09-06T08:34:31.630Z,265
2018-09-06T08:35:34.133Z,260
2018-09-06T08:36:36.244Z,259
2018-09-06T08:37:38.356Z,271
2018-09-06T08:38:40.475Z,284
2018-09-06T08:39:42.576Z,259
2018-09-06T08:40:44.700Z,270
2018-09-06T08:41:46.817Z,247
2018-09-06T08:42:48.927Z,234
2018-09-06T08:43:51.349Z,187
2018-09-06T08:44:53.454Z,79
2018-09-06T08:45:55.574Z,94
2018-09-06T08:46:57.684Z,216
2018-09-06T08:47:59.819Z,125
2018-09-06T08:49:01.922Z,253
2018-09-06T08:50:04.036Z,247
2018-09-06T08:51:06.185Z,254
2018-09-06T08:52:08.848Z,267
2018-09-06T08:53:11.133Z,275
2018-09-06T08:54:13.254Z,279
2018-09-06T08:55:15.371Z,262
2018-09-06T08:56:17.493Z,256
2018-09-06T08:57:19.601Z,259
2018-09-06T08:58:21.771Z,270
2018-09-06T08:59:23.852Z,277
2018-09-06T09:00:25.950Z,280
2018-09-06T09:01:28.088Z,280
2018-09-06T09:02:30.240Z,282
2018-09-06T09:03:32.315Z,288
2018-09-06T09:04:34.443Z,298
2018-09-06T09:05:36.571Z,295
2018-09-06T09:06:38.995Z,291
2018-09-06T09:07:41.591Z,304
2018-09-06T09:08:43.660Z,302
2018-09-06T09:09:46.169Z,275
2018-09-06T09:10:48.283Z,266
2018-09-06T09:11:50.728Z,281
2018-09-06T09:12:53.236Z,288
2018-09-06T09:13:55.675Z,293
2018-09-06T09:14:58.107Z,307
2018-09-06T09:16:00.236Z,313
2018-09-06T09:17:02.688Z,291
2018-09-06T09:18:04.814Z,314
2018-09-06T09:19:06.951Z,317
2018-09-06T09:20:09.042Z,316
2018-09-06T09:21:11.182Z,302
2018-09-06T09:22:13.444Z,259
2018-09-06T09:23:15.405Z,295
2018-09-06T09:24:17.526Z,311
2018-09-06T09:25:19.627Z,298
2018-09-06T09:26:22.057Z,299
2018-09-06T09:27:24.178Z,308
2018-09-06T09:28:26.316Z,311
2018-09-06T09:29:28.404Z,318
2018-09-06T09:30:30.558Z,331
2018-09-06T09:31:32.644Z,337
2018-09-06T09:32:34.757Z,323
2018-09-06T09:33:36.894Z,329
2018-09-06T09:34:39.002Z,320
2018-09-06T09:35:41.464Z,310
2018-09-06T09:36:43.591Z,317
2018-09-06T09:37:45.715Z,311
2018-09-06T09:38:47.824Z,307
2018-09-06T09:39:50.783Z,296
2018-09-06T09:40:52.894Z,301
2018-09-06T09:41:55.028Z,317
2018-09-06T09:42:57.157Z,324
2018-09-06T09:43:59.578Z,330
2018-09-06T09:45:02.416Z,327
2018-09-06T09:48:08.661Z,344
2018-09-06T09:49:10.793Z,343
2018-09-06T09:51:15.689Z,332
2018-09-06T09:53:20.210Z,323
2018-09-06T09:54:22.321Z,311
2018-09-06T09:55:24.452Z,326
2018-09-06T09:56:26.573Z,325
2018-09-06T09:57:28.691Z,309
2018-09-06T09:58:30.832Z,299
2018-09-06T09:59:33.368Z,296
2018-09-06T10:00:36.121Z,300
2018-09-06T10:01:38.533Z,320
2018-09-06T10:02:40.977Z,329
2018-09-06T10:03:43.400Z,319
2018-09-06T10:04:45.822Z,316
2018-09-06T10:05:48.334Z,309
2018-09-06T10:06:50.436Z,331
2018-09-06T10:07:52.563Z,331
2018-09-06T10:08:54.679Z,358
2018-09-06T10:09:56.809Z,367
2018-09-06T10:10:59.231Z,367
2018-09-06T10:12:01.348Z,343
2018-09-06T10:13:03.478Z,335
2018-09-06T10:14:05.874Z,334
2018-09-06T10:15:07.992Z,355
2018-09-06T10:16:10.131Z,354
2018-09-06T10:17:12.940Z,346
2018-09-06T10:18:15.075Z,357
2018-09-06T10:19:17.185Z,365
2018-09-06T10:20:19.298Z,368
2018-09-06T10:21:22.021Z,370
2018-09-06T10:22:24.162Z,363
2018-09-06T10:23:26.277Z,355
2018-09-06T10:24:29.085Z,373
2018-09-06T10:25:31.206Z,363
2018-09-06T10:26:33.333Z,339
2018-09-06T10:27:35.806Z,375
2018-09-06T10:28:38.068Z,96
2018-09-06T10:29:40.384Z,337
2018-09-06T10:30:45.478Z,314
2018-09-06T10:31:47.757Z,295
2018-09-06T10:32:54.510Z,291
2018-09-06T10:33:57.392Z,312
2018-09-06T10:35:06.668Z,354
2018-09-06T10:36:10.770Z,334
2018-09-06T10:37:13.255Z,340
2018-09-06T10:38:19.068Z,177
2018-09-06T10:39:24.531Z,336
2018-09-06T10:40:33.612Z,352
2018-09-06T10:41:38.725Z,350
2018-09-06T10:42:45.244Z,194
2018-09-06T10:43:49.883Z,375
2018-09-06T10:44:54.138Z,372
2018-09-06T10:46:01.233Z,109
2018-09-06T10:47:04.627Z,112
2018-09-06T10:48:10.255Z,267
2018-09-06T10:49:16.324Z,337
2018-09-06T10:50:20.998Z,357
2018-09-06T10:51:27.415Z,353
2018-09-06T10:52:32.071Z,188
2018-09-06T10:53:38.952Z,99
2018-09-06T10:54:45.141Z,117
2018-09-06T10:55:50.206Z,243
2018-09-06T10:56:54.957Z,361
2018-09-06T10:58:01.172Z,380
2018-09-06T10:59:06.402Z,375
2018-09-06T11:00:12.672Z,342
2018-09-06T11:01:19.111Z,350
2018-09-06T11:02:26.222Z,358
2018-09-06T11:03:30.654Z,343
2018-09-06T11:04:35.598Z,328
2018-09-06T11:05:41.175Z,344
2018-09-06T11:06:47.323Z,362
2018-09-06T11:07:51.146Z,345
2018-09-06T11:08:57.451Z,356
2018-09-06T11:10:01.777Z,356
2018-09-06T11:11:06.997Z,341
2018-09-06T11:12:12.364Z,350
2018-09-06T11:13:18.317Z,349
2018-09-06T11:14:21.617Z,353
2018-09-06T11:15:27.690Z,344
2018-09-06T11:16:34.642Z,351
2018-09-06T11:17:42.210Z,189
2018-09-06T11:18:48.698Z,269
2018-09-06T11:19:55.910Z,155
2018-09-06T11:21:00.419Z,357
2018-09-06T11:22:08.840Z,353
2018-09-06T11:23:13.150Z,360
2018-09-06T11:24:19.168Z,359
2018-09-06T11:25:23.713Z,104
2018-09-06T11:26:28.785Z,98
2018-09-06T11:27:36.258Z,97
2018-09-06T11:28:41.039Z,102
2018-09-06T11:29:47.937Z,126
2018-09-06T11:30:53.478Z,381
2018-09-06T11:32:01.270Z,392
2018-09-06T11:33:07.385Z,370
2018-09-06T11:34:14.469Z,128
2018-09-06T11:35:19.713Z,129
2018-09-06T11:36:27.887Z,385
2018-09-06T11:37:32.060Z,380
2018-09-06T11:38:45.700Z,385
2018-09-06T11:39:55.881Z,389
2018-09-06T11:41:03.019Z,160
2018-09-06T11:42:10.750Z,192
2018-09-06T11:43:15.054Z,155
2018-09-06T11:44:20.470Z,138
2018-09-06T11:45:32.413Z,146
2018-09-06T11:46:39.702Z,362
2018-09-06T11:47:46.792Z,397
2018-09-06T11:48:57.526Z,245
2018-09-06T11:50:09.039Z,259
2018-09-06T11:51:14.532Z,366
2018-09-06T11:52:20.820Z,395
2018-09-06T11:53:28.588Z,379
2018-09-06T11:54:35.153Z,114
2018-09-06T11:55:46.067Z,109
2018-09-06T11:56:56.403Z,104
2018-09-06T11:58:03.017Z,129
2018-09-06T11:59:12.869Z,385
2018-09-06T12:00:22.594Z,371
2018-09-06T12:01:28.128Z,395
2018-09-06T12:02:31.756Z,387
2018-09-06T12:03:37.812Z,378
2018-09-06T12:04:42.695Z,366
2018-09-06T12:05:54.118Z,118
2018-09-06T12:06:57.890Z,143
2018-09-06T12:08:06.344Z,102
2018-09-06T12:09:10.914Z,122
2018-09-06T12:10:17.269Z,287
2018-09-06T12:11:23.833Z,324
2018-09-06T12:12:30.534Z,317
2018-09-06T12:13:36.850Z,292
2018-09-06T12:14:47.102Z,311
2018-09-06T12:15:57.866Z,324
2018-09-06T12:17:04.060Z,339
2018-09-06T12:18:11.702Z,339
2018-09-06T12:19:16.682Z,331
2018-09-06T12:20:24.024Z,348
2018-09-06T12:21:27.785Z,339
2018-09-06T12:22:36.152Z,320
2018-09-06T12:23:42.433Z,310
2018-09-06T12:24:51.507Z,328
2018-09-06T12:25:58.180Z,127
2018-09-06T12:27:06.791Z,120
2018-09-06T12:28:13.069Z,109
2018-09-06T12:29:19.161Z,343
2018-09-06T12:30:26.692Z,350
2018-09-06T12:31:32.780Z,332
2018-09-06T12:32:40.156Z,323
2018-09-06T12:33:46.980Z,335
2018-09-06T12:34:52.492Z,326
2018-09-06T12:35:59.756Z,327
2018-09-06T12:37:04.749Z,214
2018-09-06T12:38:12.789Z,329
2018-09-06T12:39:18.543Z,338
2018-09-06T12:40:25.414Z,357
2018-09-06T12:41:33.782Z,327
2018-09-06T12:42:41.545Z,127
2018-09-06T12:43:48.009Z,333
2018-09-06T12:44:57.505Z,331
2018-09-06T12:46:06.381Z,343
2018-09-06T12:47:10.814Z,93
2018-09-06T12:48:18.077Z,98
2018-09-06T12:49:25.481Z,90
2018-09-06T12:50:32.349Z,97
2018-09-06T12:51:38.388Z,168
2018-09-06T12:52:45.898Z,135
2018-09-06T12:53:57.769Z,184
2018-09-06T12:55:07.276Z,218
2018-09-06T12:56:20.492Z,130
2018-09-06T12:57:27.472Z,136
2018-09-06T12:58:34.317Z,319
2018-09-06T12:59:40.655Z,336
2018-09-06T13:00:51.913Z,327
2018-09-06T13:02:01.500Z,322
2018-09-06T13:03:08.127Z,209
2018-09-06T13:04:13.721Z,314
2018-09-06T13:05:18.176Z,281
2018-09-06T13:06:28.714Z,306
2018-09-06T13:07:33.541Z,325
2018-09-06T13:08:40.914Z,322
2018-09-06T13:09:47.012Z,281
2018-09-06T13:10:52.288Z,125
2018-09-06T13:11:57.363Z,186
2018-09-06T13:13:03.979Z,326
2018-09-06T13:14:12.104Z,122
2018-09-06T13:15:18.125Z,296
2018-09-06T13:16:23.057Z,90
2018-09-06T13:17:27.698Z,203
2018-09-06T13:18:36.842Z,79
2018-09-06T13:19:40.350Z,76
2018-09-06T13:20:45.741Z,71
2018-09-06T13:21:47.955Z,68
2018-09-06T13:22:54.264Z,84
2018-09-06T13:23:58.711Z,71
2018-09-06T13:25:01.489Z,74
2018-09-06T13:26:06.104Z,77
2018-09-06T13:27:09.794Z,80
2018-09-06T13:28:12.245Z,143
2018-09-06T13:29:14.368Z,172
2018-09-06T13:30:16.525Z,81
2018-09-06T13:31:18.965Z,73
2018-09-06T13:32:21.095Z,70
2018-09-06T13:33:23.198Z,71
2018-09-06T13:34:25.333Z,71
2018-09-06T13:35:27.883Z,78
2018-09-06T13:36:29.980Z,80
2018-09-06T13:37:32.119Z,120
2018-09-06T13:38:34.909Z,96
2018-09-06T13:39:37.421Z,114
2018-09-06T13:40:39.550Z,117
2018-09-06T13:41:41.677Z,100
2018-09-06T13:42:43.786Z,93
2018-09-06T13:43:46.210Z,89
2018-09-06T13:44:48.321Z,96
2018-09-06T13:45:50.440Z,94
2018-09-06T13:46:52.575Z,94
2018-09-06T13:47:54.692Z,101
2018-09-06T13:48:56.810Z,89
2018-09-06T13:49:58.947Z,96
2018-09-06T13:51:01.066Z,81
2018-09-06T13:52:03.197Z,100
2018-09-06T13:53:05.319Z,92
2018-09-06T13:54:07.821Z,89
2018-09-06T13:55:09.946Z,93
2018-09-06T13:56:12.360Z,120
2018-09-06T13:57:15.082Z,108
2018-09-06T13:58:17.527Z,109
2018-09-06T13:59:19.603Z,105
2018-09-06T14:00:21.716Z,107
2018-09-06T14:01:23.831Z,88
2018-09-06T14:02:25.973Z,75
2018-09-06T14:03:28.091Z,67
2018-09-06T14:04:30.219Z,62
2018-09-06T14:05:32.339Z,59
2018-09-06T14:06:34.475Z,57
2018-09-06T14:07:36.983Z,56
2018-09-06T14:08:39.105Z,54
2018-09-06T14:09:41.516Z,51
2018-09-06T14:10:43.649Z,49
2018-09-06T14:11:46.040Z,48
2018-09-06T14:12:48.162Z,48
2018-09-06T14:13:50.583Z,50
2018-09-06T14:14:52.700Z,52
2018-09-06T14:15:54.812Z,54
2018-09-06T14:16:56.930Z,59
2018-09-06T14:17:59.042Z,61
2018-09-06T14:19:01.458Z,66
2018-09-06T14:20:03.592Z,69
2018-09-06T14:21:05.715Z,71
2018-09-06T14:22:07.829Z,71
2018-09-06T14:23:09.963Z,72
2018-09-06T14:24:12.989Z,73
2018-09-06T14:25:15.049Z,75
2018-09-06T14:26:17.466Z,79
2018-09-06T14:27:19.967Z,80
2018-09-06T14:28:22.091Z,84
2018-09-06T14:29:24.211Z,107
2018-09-06T14:30:26.351Z,98
2018-09-06T14:31:28.470Z,108
2018-09-06T14:32:30.601Z,92
2018-09-06T14:33:33.126Z,107
2018-09-06T14:34:35.240Z,103
2018-09-06T14:35:37.367Z,99
2018-09-06T14:36:39.477Z,192
2018-09-06T14:37:41.595Z,104
2018-09-06T14:38:44.280Z,201
2018-09-06T14:39:46.306Z,203
2018-09-06T14:40:48.418Z,205
2018-09-06T14:41:50.541Z,198
2018-09-06T14:42:53.051Z,198
2018-09-06T14:43:55.561Z,190
2018-09-06T14:44:57.636Z,182
2018-09-06T14:45:59.754Z,179
2018-09-06T14:47:01.867Z,177
2018-09-06T14:48:04.281Z,181
2018-09-06T14:49:06.411Z,187
2018-09-06T14:50:08.525Z,182
2018-09-06T14:51:10.663Z,181
2018-09-06T14:52:13.078Z,177
2018-09-06T14:53:15.191Z,174
2018-09-06T14:54:17.311Z,176
2018-09-06T14:55:19.455Z,172
2018-09-06T14:56:21.597Z,183
2018-09-06T14:57:23.686Z,182
2018-09-06T14:58:25.819Z,187
2018-09-06T14:59:27.926Z,177
2018-09-06T15:00:30.456Z,154
2018-09-06T15:01:33.951Z,153